Time;durP1;ratioP1;P1;durP2;ratioP2;P2;SDS_P1;SDS_P2;PMS_P1;PMS_P2;Temp;Humidity;BMP_temperature;BMP_pressure;BME280_temperature;BME280_humidity;BME280_pressure;Samples;Min_cycle;Max_cycle;Signal;HPM_P1;HPM_P2
2021/04/06 00:00:59;;;;;;;4.10;2.80;;;10.90;99.90;;;;;;5013015;28;20048;-75
2021/04/06 00:03:27;;;;;;;7.25;2.42;;;11.00;99.90;;;;;;5011636;28;20052;-76
2021/04/06 00:05:57;;;;;;;3.45;2.38;;;11.00;99.90;;;;;;5006941;28;20026;-76
2021/04/06 00:08:26;;;;;;;6.18;1.92;;;11.00;99.90;;;;;;5012420;28;20689;-75
2021/04/06 00:10:54;;;;;;;4.43;2.22;;;11.10;99.90;;;;;;5012005;28;20388;-76
2021/04/06 00:13:25;;;;;;;8.80;2.72;;;11.10;99.90;;;;;;5012134;28;20030;-76
2021/04/06 00:15:51;;;;;;;6.80;2.63;;;11.20;99.90;;;;;;5016949;28;20029;-76
2021/04/06 00:18:18;;;;;;;2.90;2.58;;;11.20;99.90;;;;;;5010736;28;20034;-75
2021/04/06 00:20:45;;;;;;;7.43;2.55;;;11.20;99.90;;;;;;5015139;28;20422;-76
2021/04/06 00:23:13;;;;;;;4.28;2.20;;;11.20;99.90;;;;;;5013103;28;20097;-76
2021/04/06 00:25:42;;;;;;;3.97;2.83;;;11.20;99.90;;;;;;5019899;28;20088;-76
2021/04/06 00:28:12;;;;;;;3.28;2.20;;;11.20;99.90;;;;;;5010472;28;20048;-75
2021/04/06 00:30:41;;;;;;;4.78;1.90;;;11.20;99.90;;;;;;5022580;28;20093;-76
2021/04/06 00:33:13;;;;;;;6.88;2.72;;;11.20;99.90;;;;;;5009803;28;20025;-75
2021/04/06 00:35:41;;;;;;;4.13;2.75;;;11.10;99.90;;;;;;5019099;28;20032;-75
2021/04/06 00:38:13;;;;;;;3.30;2.15;;;11.10;99.90;;;;;;5019273;28;20427;-75
2021/04/06 00:40:48;;;;;;;9.52;2.83;;;11.10;99.90;;;;;;5015568;28;20022;-75
2021/04/06 00:43:16;;;;;;;5.32;3.13;;;11.10;99.90;;;;;;5019956;28;20026;-75
2021/04/06 00:45:45;;;;;;;5.30;2.42;;;11.10;99.90;;;;;;5016505;28;20034;-75
2021/04/06 00:48:18;;;;;;;4.35;2.13;;;11.10;99.90;;;;;;5017323;28;20017;-75
2021/04/06 00:51:02;;;;;;;;;;;11.10;99.90;;;;;;5012336;28;20485;-75
2021/04/06 00:53:55;;;;;;;3.88;2.38;;;11.10;99.90;;;;;;4998603;28;19948;-76
2021/04/06 00:56:25;;;;;;;5.03;2.20;;;11.10;99.90;;;;;;5020731;28;20072;-76
2021/04/06 00:58:57;;;;;;;8.65;2.42;;;11.10;99.90;;;;;;5020930;28;20431;-76
2021/04/06 01:01:33;;;;;;;;;;;11.10;99.90;;;;;;4993688;28;20021;-75
2021/04/06 01:04:03;;;;;;;3.53;2.55;;;11.30;99.90;;;;;;5018678;28;19913;-76
2021/04/06 01:06:31;;;;;;;4.25;2.75;;;11.30;99.90;;;;;;5020210;28;20032;-76
2021/04/06 01:08:59;;;;;;;4.90;2.38;;;11.30;99.90;;;;;;5022152;28;20079;-76
2021/04/06 01:11:25;;;;;;;7.07;2.50;;;11.30;99.90;;;;;;5017515;28;20042;-76
2021/04/06 01:13:51;;;;;;;4.72;2.15;;;11.30;99.90;;;;;;5015182;28;20030;-75
2021/04/06 01:16:18;;;;;;;5.60;2.45;;;11.40;99.90;;;;;;5017936;28;20057;-75
2021/04/06 01:18:45;;;;;;;6.20;2.55;;;11.30;99.90;;;;;;5024688;28;20025;-75
2021/04/06 01:21:11;;;;;;;2.67;2.20;;;11.20;99.90;;;;;;5021184;28;20022;-75
2021/04/06 01:23:39;;;;;;;6.40;3.08;;;11.10;99.90;;;;;;5029201;28;20029;-75
2021/04/06 01:26:10;;;;;;;6.18;2.58;;;11.10;99.90;;;;;;5007785;28;20018;-75
2021/04/06 01:28:36;;;;;;;4.70;3.17;;;11.10;99.90;;;;;;5015045;28;20026;-75
2021/04/06 01:31:04;;;;;;;6.05;2.72;;;11.20;99.90;;;;;;5024773;28;20105;-75
2021/04/06 01:33:31;;;;;;;5.15;2.38;;;11.20;99.90;;;;;;5023232;28;20028;-76
2021/04/06 01:36:07;;;;;;;8.57;3.20;;;11.20;99.90;;;;;;5021084;28;20439;-75
2021/04/06 01:38:37;;;;;;;2.97;2.67;;;11.30;99.90;;;;;;5017229;28;20033;-75
2021/04/06 01:41:04;;;;;;;8.65;2.22;;;11.20;99.90;;;;;;5037184;28;20037;-75
2021/04/06 01:43:31;;;;;;;7.60;3.05;;;11.20;99.90;;;;;;5044085;28;20035;-75
2021/04/06 01:46:49;;;;;;;3.15;2.80;;;11.20;99.90;;;;;;5028013;28;20057;-76
2021/04/06 01:48:50;;;;;;;6.40;3.10;;;11.20;99.90;;;;;;5021587;28;20510;-75
2021/04/06 01:51:21;;;;;;;2.88;2.60;;;11.20;99.90;;;;;;5032319;28;20037;-75
2021/04/06 01:53:47;;;;;;;8.82;3.42;;;11.20;99.90;;;;;;5027300;28;20026;-75
2021/04/06 01:56:15;;;;;;;5.50;3.35;;;11.30;99.90;;;;;;5028085;28;20034;-75
2021/04/06 01:58:48;;;;;;;8.52;3.03;;;11.30;99.90;;;;;;5026415;28;20018;-75
2021/04/06 02:01:24;;;;;;;5.78;3.38;;;11.20;99.90;;;;;;5004464;28;20806;-75
2021/04/06 02:03:56;;;;;;;4.97;3.30;;;11.10;99.90;;;;;;5014325;28;20101;-75
2021/04/06 02:06:27;;;;;;;14.07;3.90;;;11.20;99.90;;;;;;5014983;28;20082;-75
2021/04/06 02:08:54;;;;;;;7.85;3.33;;;11.30;99.90;;;;;;5024818;28;20099;-75
2021/04/06 02:11:40;;;;;;;4.40;3.63;;;11.30;99.90;;;;;;5020082;28;20029;-75
2021/04/06 02:14:14;;;;;;;6.68;4.32;;;11.30;99.90;;;;;;5024313;28;20033;-75
2021/04/06 02:17:04;;;;;;;7.20;3.95;;;11.40;99.90;;;;;;5018620;28;20041;-75
2021/04/06 02:19:37;;;;;;;8.07;3.33;;;11.40;99.90;;;;;;5007250;28;20029;-76
2021/04/06 02:22:10;;;;;;;9.57;3.70;;;11.40;99.90;;;;;;5018292;28;20037;-75
2021/04/06 02:24:40;;;;;;;8.20;3.67;;;11.30;99.90;;;;;;5020082;28;20050;-75
2021/04/06 02:27:29;;;;;;;5.03;3.58;;;11.30;99.90;;;;;;5026657;28;20018;-75
2021/04/06 02:29:58;;;;;;;13.00;4.53;;;11.30;99.90;;;;;;5014730;28;20080;-76
2021/04/06 02:32:26;;;;;;;15.00;4.32;;;11.30;99.90;;;;;;5029483;28;20034;-76
2021/04/06 02:34:55;;;;;;;9.98;4.20;;;11.30;99.90;;;;;;5021040;28;20056;-76
2021/04/06 02:37:27;;;;;;;9.35;4.50;;;11.30;99.90;;;;;;5027198;28;20029;-75
2021/04/06 02:39:55;;;;;;;8.45;3.90;;;11.30;99.90;;;;;;5028592;28;20357;-75
2021/04/06 02:42:25;;;;;;;9.95;4.38;;;11.30;99.90;;;;;;5023372;28;20016;-76
2021/04/06 02:45:11;;;;;;;8.13;3.85;;;11.30;99.90;;;;;;5031354;28;20026;-76
2021/04/06 02:48:07;;;;;;;5.50;3.75;;;11.30;99.90;;;;;;5030565;28;20032;-75
2021/04/06 02:50:34;;;;;;;9.18;4.32;;;11.30;99.90;;;;;;5005958;28;20060;-76
2021/04/06 02:53:04;;;;;;;6.03;4.25;;;11.40;99.90;;;;;;5013185;28;20033;-76
2021/04/06 02:55:30;;;;;;;13.23;5.22;;;11.40;99.90;;;;;;5012604;28;20050;-76
2021/04/06 02:57:56;;;;;;;8.63;4.82;;;11.30;99.90;;;;;;5026583;28;20045;-76
2021/04/06 03:00:32;;;;;;;11.60;6.40;;;11.40;99.90;;;;;;5030675;28;20514;-76
2021/04/06 03:03:04;;;;;;;4.53;3.58;;;11.40;99.90;;;;;;5022867;28;20018;-77
2021/04/06 03:05:39;;;;;;;6.18;3.55;;;11.40;99.90;;;;;;5012849;28;20120;-77
2021/04/06 03:08:06;;;;;;;12.73;4.20;;;11.40;99.90;;;;;;5013340;28;20103;-76
2021/04/06 03:10:33;;;;;;;8.13;4.13;;;11.30;99.90;;;;;;5014510;28;20168;-77
2021/04/06 03:13:13;;;;;;;12.43;5.55;;;11.40;99.90;;;;;;5013991;28;20029;-76
2021/04/06 03:15:42;;;;;;;10.88;5.03;;;11.40;99.90;;;;;;5022565;28;20096;-76
2021/04/06 03:18:10;;;;;;;12.23;5.32;;;11.40;99.90;;;;;;5022960;28;20029;-76
2021/04/06 03:20:37;;;;;;;9.07;4.53;;;11.50;99.90;;;;;;5012348;28;20115;-75
2021/04/06 03:23:05;;;;;;;13.77;5.78;;;11.50;99.90;;;;;;4977267;28;20574;-75
2021/04/06 03:25:33;;;;;;;7.40;4.57;;;11.60;99.90;;;;;;5010195;28;20022;-76
2021/04/06 03:28:08;;;;;;;18.00;5.25;;;11.50;99.90;;;;;;5009059;28;20026;-75
2021/04/06 03:30:35;;;;;;;14.00;4.50;;;11.60;99.90;;;;;;5018369;28;20038;-75
2021/04/06 03:33:04;;;;;;;11.25;5.32;;;11.50;99.90;;;;;;5020707;28;20036;-75
2021/04/06 03:35:32;;;;;;;9.90;5.18;;;11.40;99.90;;;;;;5002052;28;20022;-76
2021/04/06 03:38:03;;;;;;;7.20;4.50;;;11.40;99.90;;;;;;5022355;28;20361;-75
2021/04/06 03:40:33;;;;;;;11.68;5.05;;;11.40;99.90;;;;;;4974732;28;20026;-75
2021/04/06 03:43:12;;;;;;;12.35;4.45;;;11.50;99.90;;;;;;5017697;28;20049;-76
2021/04/06 03:45:59;;;;;;;11.98;5.40;;;11.60;99.90;;;;;;5018573;28;20029;-75
2021/04/06 03:48:31;;;;;;;10.65;4.80;;;11.50;99.90;;;;;;5018836;28;20025;-75
2021/04/06 03:50:59;;;;;;;8.98;4.85;;;11.50;99.90;;;;;;5018354;28;20026;-74
2021/04/06 03:53:35;;;;;;;10.73;6.25;;;11.60;99.90;;;;;;5015116;28;20030;-75
2021/04/06 03:56:03;;;;;;;8.38;4.32;;;11.50;99.90;;;;;;5022624;28;20014;-74
2021/04/06 03:58:32;;;;;;;9.85;5.20;;;11.60;99.90;;;;;;5029467;28;20033;-74
2021/04/06 04:00:58;;;;;;;11.35;5.10;;;11.60;99.90;;;;;;5027806;28;20032;-77
2021/04/06 04:03:24;;;;;;;12.20;4.68;;;11.50;99.90;;;;;;5017860;28;20093;-76
2021/04/06 04:05:50;;;;;;;8.15;5.10;;;11.60;99.90;;;;;;5016637;28;20388;-75
2021/04/06 04:08:16;;;;;;;12.13;5.70;;;11.60;99.90;;;;;;5021622;28;20014;-75
2021/04/06 04:10:41;;;;;;;10.75;5.00;;;11.60;99.90;;;;;;5027418;28;20356;-75
2021/04/06 04:13:07;;;;;;;8.95;4.88;;;11.60;99.90;;;;;;5017446;28;20022;-76
2021/04/06 04:15:33;;;;;;;18.30;5.80;;;11.60;99.90;;;;;;5023185;28;20038;-75
2021/04/06 04:17:58;;;;;;;17.25;3.95;;;11.60;99.90;;;;;;5022478;28;20037;-77
2021/04/06 04:20:24;;;;;;;17.77;6.07;;;11.60;99.90;;;;;;5024404;28;20025;-76
2021/04/06 04:22:51;;;;;;;14.77;5.75;;;11.60;99.90;;;;;;5013509;28;20565;-75
2021/04/06 04:25:18;;;;;;;8.65;4.55;;;11.70;99.90;;;;;;5016034;28;20093;-76
2021/04/06 04:27:44;;;;;;;8.88;5.97;;;11.60;99.90;;;;;;5029013;28;20108;-74
2021/04/06 04:30:12;;;;;;;7.55;4.85;;;11.60;99.90;;;;;;5013057;28;20022;-76
2021/04/06 04:32:39;;;;;;;12.88;5.10;;;11.60;99.90;;;;;;5013100;28;20120;-76
2021/04/06 04:35:05;;;;;;;9.38;5.53;;;11.60;99.90;;;;;;5014794;28;20026;-75
2021/04/06 04:37:31;;;;;;;17.77;6.05;;;11.60;99.90;;;;;;5011091;28;20404;-75
2021/04/06 04:39:57;;;;;;;16.25;6.32;;;11.60;99.90;;;;;;5013966;28;20029;-76
2021/04/06 04:42:23;;;;;;;11.02;5.15;;;11.60;99.90;;;;;;5011636;28;20049;-76
2021/04/06 04:44:49;;;;;;;10.82;4.68;;;11.70;99.90;;;;;;5020848;28;20022;-76
2021/04/06 04:47:15;;;;;;;12.38;4.85;;;11.70;99.90;;;;;;5009731;28;20120;-76
2021/04/06 04:49:41;;;;;;;7.45;5.13;;;11.70;99.90;;;;;;5026437;28;20483;-76
2021/04/06 04:52:07;;;;;;;18.92;8.52;;;11.70;99.90;;;;;;5026732;28;20037;-75
2021/04/06 04:54:32;;;;;;;19.73;9.70;;;11.70;99.90;;;;;;5023135;28;20021;-76
2021/04/06 04:56:59;;;;;;;17.33;5.35;;;11.70;99.90;;;;;;5016903;28;20037;-76
2021/04/06 04:59:25;;;;;;;20.30;6.90;;;11.70;99.90;;;;;;5020549;28;20052;-76
2021/04/06 05:01:51;;;;;;;15.13;6.43;;;11.70;99.90;;;;;;5022834;28;20029;-77
2021/04/06 05:04:17;;;;;;;13.40;7.03;;;11.60;99.90;;;;;;5026044;28;20100;-76
2021/04/06 05:06:43;;;;;;;23.65;7.75;;;11.50;99.90;;;;;;5027993;28;20386;-76
2021/04/06 05:09:09;;;;;;;13.45;6.10;;;11.50;99.90;;;;;;5023289;28;20034;-76
2021/04/06 05:11:35;;;;;;;12.55;7.15;;;11.40;99.90;;;;;;5015533;28;20045;-76
2021/04/06 05:14:02;;;;;;;15.43;7.75;;;11.30;99.90;;;;;;5024210;28;20041;-76
2021/04/06 05:16:28;;;;;;;13.77;6.90;;;11.20;99.90;;;;;;5017598;28;20495;-76
2021/04/06 05:18:54;;;;;;;13.60;7.05;;;11.20;99.90;;;;;;5019507;28;20066;-75
2021/04/06 05:21:20;;;;;;;14.02;6.97;;;11.10;99.90;;;;;;5026474;28;20025;-74
2021/04/06 05:23:45;;;;;;;8.77;6.68;;;11.10;99.90;;;;;;5016497;28;20372;-76
2021/04/06 05:26:11;;;;;;;14.52;7.35;;;11.10;99.90;;;;;;5015104;28;20029;-75
2021/04/06 05:28:37;;;;;;;13.27;6.68;;;11.00;99.90;;;;;;5013311;28;20157;-76
2021/04/06 05:31:03;;;;;;;19.55;8.43;;;10.90;99.90;;;;;;5033544;28;20495;-76
2021/04/06 05:33:29;;;;;;;8.27;6.90;;;10.90;99.90;;;;;;5020989;28;20439;-75
2021/04/06 05:35:54;;;;;;;17.23;9.32;;;10.90;99.90;;;;;;5024866;28;20108;-74
2021/04/06 05:38:20;;;;;;;20.55;8.73;;;11.00;99.90;;;;;;4996825;28;20029;-75
2021/04/06 05:40:46;;;;;;;16.40;8.00;;;11.00;99.90;;;;;;5014965;28;20072;-75
2021/04/06 05:43:14;;;;;;;18.20;8.25;;;11.00;99.90;;;;;;5021099;28;20113;-75
2021/04/06 05:45:44;;;;;;;14.50;7.28;;;11.10;99.90;;;;;;5015168;28;20503;-75
2021/04/06 05:48:14;;;;;;;7.85;6.38;;;11.10;99.90;;;;;;5021541;28;20097;-77
2021/04/06 05:50:46;;;;;;;10.85;7.55;;;11.20;99.90;;;;;;5026164;28;20088;-76
2021/04/06 05:53:13;;;;;;;17.65;7.43;;;11.20;99.90;;;;;;5009732;28;20029;-77
2021/04/06 05:55:38;;;;;;;14.00;7.18;;;11.10;99.90;;;;;;5027443;28;20488;-75
2021/04/06 05:58:04;;;;;;;17.02;6.95;;;11.20;99.90;;;;;;5025690;28;20030;-76
2021/04/06 06:00:30;;;;;;;14.05;7.45;;;11.20;99.90;;;;;;5034799;28;20029;-75
2021/04/06 06:02:56;;;;;;;19.88;8.18;;;11.30;99.90;;;;;;5018213;28;20026;-76
2021/04/06 06:05:22;;;;;;;20.88;8.63;;;11.20;99.90;;;;;;5017153;28;20014;-76
2021/04/06 06:07:48;;;;;;;14.13;8.15;;;11.10;99.90;;;;;;5005424;28;20025;-75
2021/04/06 06:10:31;;;;;;;13.77;8.07;;;11.00;99.90;;;;;;5020462;28;20022;-74
2021/04/06 06:13:25;;;;;;;12.73;8.48;;;11.00;99.90;;;;;;5017904;28;20107;-76
2021/04/06 06:16:11;;;;;;;14.77;8.63;;;11.20;99.90;;;;;;5001647;28;20061;-74
2021/04/06 06:19:02;;;;;;;11.68;6.80;;;11.20;99.90;;;;;;5018547;28;20049;-74
2021/04/06 06:22:14;;;;;;;13.68;7.38;;;11.10;99.90;;;;;;5013345;28;20036;-75
2021/04/06 06:24:43;;;;;;;10.65;7.15;;;11.00;99.90;;;;;;4933617;29;20077;-75
2021/04/06 06:27:41;;;;;;;6.35;5.50;;;11.00;99.90;;;;;;5016845;28;20041;-75
2021/04/06 06:30:37;;;;;;;4.68;3.08;;;10.80;99.90;;;;;;5017241;28;20113;-75
2021/04/06 06:33:24;;;;;;;2.75;0.75;;;9.90;99.90;;;;;;5025323;28;20113;-76
2021/04/06 06:35:51;;;;;;;0.73;0.40;;;8.60;99.90;;;;;;5006269;28;20061;-75
2021/04/06 06:38:27;;;;;;;0.85;0.57;;;7.80;99.90;;;;;;5019848;28;20041;-75
2021/04/06 06:40:56;;;;;;;0.98;0.35;;;7.40;99.90;;;;;;5010410;28;20026;-74
2021/04/06 06:43:24;;;;;;;3.50;0.55;;;7.00;99.90;;;;;;5018767;28;20037;-74
2021/04/06 06:45:52;;;;;;;0.38;0.30;;;6.60;99.90;;;;;;4997354;28;20030;-76
2021/04/06 06:48:31;;;;;;;0.30;0.30;;;6.20;99.90;;;;;;5023136;28;20091;-75
2021/04/06 06:50:59;;;;;;;5.05;0.60;;;6.40;99.90;;;;;;5014358;28;20022;-74
2021/04/06 06:53:38;;;;;;;0.75;0.30;;;6.10;99.90;;;;;;5019137;28;20505;-73
2021/04/06 06:56:06;;;;;;;4.15;0.20;;;5.70;99.90;;;;;;5014378;28;20029;-74
2021/04/06 06:58:40;;;;;;;0.57;0.40;;;5.40;99.90;;;;;;5024110;28;20068;-74
2021/04/06 07:01:23;;;;;;;0.63;0.35;;;5.30;99.90;;;;;;5017385;28;20423;-75
2021/04/06 07:04:03;;;;;;;3.72;0.40;;;5.40;99.90;;;;;;5000643;28;20030;-73
2021/04/06 07:06:29;;;;;;;0.52;0.50;;;5.30;99.90;;;;;;5002567;28;20102;-74
2021/04/06 07:08:55;;;;;;;1.08;0.40;;;5.00;99.90;;;;;;5020635;28;20161;-72
2021/04/06 07:11:22;;;;;;;0.20;0.20;;;4.90;99.90;;;;;;5023509;28;20025;-73
2021/04/06 07:13:51;;;;;;;0.43;0.30;;;4.70;99.90;;;;;;5018176;28;20427;-72
2021/04/06 07:16:18;;;;;;;0.20;0.20;;;4.70;99.90;;;;;;5014134;28;20076;-74
2021/04/06 07:18:47;;;;;;;0.20;0.20;;;4.70;99.90;;;;;;5027159;28;20068;-77
2021/04/06 07:21:15;;;;;;;2.03;1.25;;;4.80;99.90;;;;;;5003125;28;20021;-74
2021/04/06 07:24:02;;;;;;;0.10;0.10;;;4.80;99.90;;;;;;5012253;28;20502;-74
2021/04/06 07:26:29;;;;;;;0.00;0.00;;;4.80;99.90;;;;;;5012447;28;20041;-73
2021/04/06 07:28:56;;;;;;;0.32;0.30;;;4.70;99.90;;;;;;5020696;28;20087;-74
2021/04/06 07:31:22;;;;;;;3.00;0.45;;;4.80;99.90;;;;;;5022061;28;20022;-73
2021/04/06 07:33:48;;;;;;;0.65;0.25;;;4.80;99.90;;;;;;5015625;28;20377;-73
2021/04/06 07:36:22;;;;;;;3.13;0.82;;;4.70;99.90;;;;;;5019632;28;20030;-73
2021/04/06 07:39:00;;;;;;;0.30;0.30;;;4.60;99.90;;;;;;5016499;28;20028;-75
2021/04/06 07:41:30;;;;;;;0.30;0.30;;;4.20;99.90;;;;;;5026744;28;20029;-76
2021/04/06 07:44:00;;;;;;;0.15;0.15;;;4.20;99.90;;;;;;4998221;28;20029;-73
2021/04/06 07:46:35;;;;;;;0.20;0.20;;;4.10;99.90;;;;;;5007267;28;20036;-73
2021/04/06 07:49:09;;;;;;;4.28;0.50;;;4.00;99.90;;;;;;5022202;28;20573;-73
2021/04/06 07:51:44;;;;;;;2.65;0.32;;;3.90;99.90;;;;;;4991748;28;20033;-74
2021/04/06 07:54:15;;;;;;;1.23;0.40;;;3.80;99.90;;;;;;5016187;28;20026;-74
2021/04/06 07:56:45;;;;;;;1.38;0.45;;;3.80;99.90;;;;;;5015117;28;20041;-75
2021/04/06 07:59:33;;;;;;;3.05;0.47;;;3.80;99.90;;;;;;5019408;28;20021;-74
2021/04/06 08:02:01;;;;;;;0.35;0.35;;;3.80;99.90;;;;;;5000973;28;20543;-73
2021/04/06 08:04:41;;;;;;;0.45;0.40;;;3.90;99.90;;;;;;5017443;28;20396;-71
2021/04/06 08:07:33;;;;;;;2.13;0.73;;;3.90;99.90;;;;;;5019898;28;20029;-71
2021/04/06 08:10:16;;;;;;;1.92;0.28;;;3.90;99.90;;;;;;5011720;28;20026;-71
2021/04/06 08:12:42;;;;;;;0.43;0.30;;;4.00;99.90;;;;;;5017039;28;20083;-73
2021/04/06 08:15:12;;;;;;;0.35;0.30;;;3.90;99.90;;;;;;5022829;28;20105;-74
2021/04/06 08:17:41;;;;;;;0.50;0.50;;;4.00;99.90;;;;;;5015009;28;20069;-72
2021/04/06 08:20:19;;;;;;;0.55;0.50;;;3.90;99.90;;;;;;5021468;28;20038;-74
2021/04/06 08:22:55;;;;;;;0.40;0.40;;;3.90;99.90;;;;;;5017601;28;20037;-74
2021/04/06 08:25:21;;;;;;;0.55;0.55;;;3.90;99.90;;;;;;5014703;28;20440;-71
2021/04/06 08:28:01;;;;;;;0.20;0.20;;;3.90;99.90;;;;;;5027833;28;20025;-71
2021/04/06 08:30:27;;;;;;;4.60;0.50;;;3.80;99.90;;;;;;5019788;28;20029;-71
2021/04/06 08:32:59;;;;;;;0.30;0.30;;;3.90;99.90;;;;;;5019276;28;20025;-71
2021/04/06 08:35:43;;;;;;;0.50;0.50;;;3.90;99.90;;;;;;5012607;28;20026;-72
2021/04/06 08:40:57;;;;;;;0.25;0.25;;;3.90;99.90;;;;;;5017986;28;20436;-72
2021/04/06 08:43:27;;;;;;;0.40;0.40;;;4.00;99.90;;;;;;5013036;28;20048;-71
2021/04/06 08:45:53;;;;;;;0.30;0.30;;;4.10;99.90;;;;;;5009568;28;20036;-71
2021/04/06 08:48:48;;;;;;;0.47;0.40;;;4.20;99.90;;;;;;5027260;28;20050;-71
2021/04/06 08:51:26;;;;;;;2.75;0.93;;;4.20;99.90;;;;;;5018360;28;20072;-70
2021/04/06 08:53:55;;;;;;;0.35;0.35;;;4.30;99.90;;;;;;5020971;28;20468;-71
2021/04/06 08:56:34;;;;;;;1.13;0.85;;;4.30;99.90;;;;;;5004347;28;20022;-71
2021/04/06 08:59:18;;;;;;;0.38;0.30;;;4.50;99.90;;;;;;5006868;28;20474;-70
2021/04/06 09:01:53;;;;;;;0.20;0.20;;;4.50;99.90;;;;;;5011926;28;20084;-71
2021/04/06 09:04:22;;;;;;;0.50;0.20;;;4.50;99.90;;;;;;5002529;28;20018;-71
2021/04/06 09:06:48;;;;;;;0.38;0.38;;;4.40;99.90;;;;;;5005482;28;20026;-73
2021/04/06 09:09:22;;;;;;;0.20;0.20;;;4.30;99.90;;;;;;5019572;28;20500;-70
2021/04/06 09:11:51;;;;;;;0.28;0.28;;;4.20;99.90;;;;;;5021780;28;20525;-73
2021/04/06 09:14:17;;;;;;;1.15;0.50;;;4.20;99.90;;;;;;5013835;28;20472;-71
2021/04/06 09:16:43;;;;;;;0.93;0.52;;;4.20;99.90;;;;;;5021761;28;20124;-71
2021/04/06 09:19:16;;;;;;;0.28;0.20;;;4.30;99.90;;;;;;5012704;28;20037;-72
2021/04/06 09:21:44;;;;;;;2.08;0.35;;;4.30;99.90;;;;;;5017207;28;20069;-71
2021/04/06 09:24:12;;;;;;;0.85;0.20;;;4.20;99.90;;;;;;5016102;28;20105;-72
2021/04/06 09:26:39;;;;;;;1.83;0.30;;;4.20;99.90;;;;;;5018607;28;20045;-70
2021/04/06 09:29:17;;;;;;;3.67;0.30;;;4.20;99.90;;;;;;5010401;28;20383;-75
2021/04/06 09:31:49;;;;;;;0.52;0.52;;;4.30;99.90;;;;;;5002849;28;20101;-72
2021/04/06 09:34:21;;;;;;;1.05;0.38;;;4.10;99.90;;;;;;5019433;28;20100;-72
2021/04/06 09:37:05;;;;;;;0.30;0.30;;;4.10;99.90;;;;;;5015434;28;20570;-71
2021/04/06 09:39:32;;;;;;;0.30;0.30;;;4.00;99.90;;;;;;5012965;28;20034;-71
2021/04/06 09:41:59;;;;;;;2.30;0.52;;;3.90;99.90;;;;;;4998924;28;20391;-69
2021/04/06 09:44:28;;;;;;;0.88;0.40;;;4.00;99.90;;;;;;5019341;28;20101;-70
2021/04/06 09:46:56;;;;;;;1.65;0.32;;;4.00;99.90;;;;;;5022281;28;20079;-72
2021/04/06 09:49:28;;;;;;;0.40;0.40;;;4.00;99.90;;;;;;5025910;28;20045;-72
2021/04/06 09:51:55;;;;;;;3.80;0.60;;;4.00;99.90;;;;;;5023682;28;20032;-71
2021/04/06 09:54:27;;;;;;;0.43;0.38;;;4.00;99.90;;;;;;5021110;28;20026;-71
2021/04/06 09:56:56;;;;;;;1.23;0.70;;;4.00;99.90;;;;;;5021192;28;20091;-72
2021/04/06 09:59:22;;;;;;;0.30;0.30;;;4.00;99.90;;;;;;5013974;28;20029;-71
2021/04/06 10:01:56;;;;;;;2.33;0.75;;;3.80;99.90;;;;;;4999382;28;20613;-70
2021/04/06 10:04:41;;;;;;;2.08;0.70;;;3.50;99.90;;;;;;5008094;28;20052;-73
2021/04/06 10:07:08;;;;;;;1.45;0.95;;;3.30;99.90;;;;;;5006481;28;20045;-69
2021/04/06 10:09:36;;;;;;;2.20;0.63;;;3.20;99.90;;;;;;5022381;28;20022;-71
2021/04/06 10:12:03;;;;;;;0.70;0.70;;;3.30;99.90;;;;;;5019579;28;20364;-72
2021/04/06 10:14:29;;;;;;;0.80;0.80;;;3.30;99.90;;;;;;5021756;28;20030;-72
2021/04/06 10:17:03;;;;;;;1.38;1.27;;;3.30;99.90;;;;;;5011626;28;20045;-72
2021/04/06 10:19:30;;;;;;;1.20;0.88;;;3.40;99.90;;;;;;5018103;28;20071;-73
2021/04/06 10:21:58;;;;;;;1.13;0.73;;;3.30;99.90;;;;;;5014045;28;20033;-73
2021/04/06 10:24:29;;;;;;;0.65;0.65;;;3.20;99.90;;;;;;4998987;28;20021;-72
2021/04/06 10:27:04;;;;;;;0.70;0.68;;;3.30;99.90;;;;;;5024573;28;20494;-72
2021/04/06 10:29:33;;;;;;;1.67;0.95;;;3.50;99.90;;;;;;5013521;28;20138;-74
2021/04/06 10:32:01;;;;;;;1.58;0.82;;;3.50;99.90;;;;;;5009832;28;20117;-72
2021/04/06 10:34:29;;;;;;;0.57;0.57;;;3.50;99.90;;;;;;5015946;28;20509;-70
2021/04/06 10:36:55;;;;;;;0.57;0.57;;;3.40;99.90;;;;;;5030562;28;20041;-71
2021/04/06 10:39:51;;;;;;;0.63;0.60;;;3.30;99.90;;;;;;5011663;28;20026;-72
2021/04/06 10:42:19;;;;;;;1.02;0.65;;;3.30;99.90;;;;;;4979516;28;20037;-72
2021/04/06 10:44:47;;;;;;;0.82;0.82;;;3.40;99.90;;;;;;5006231;28;20037;-74
2021/04/06 10:47:26;;;;;;;1.13;0.60;;;3.20;99.90;;;;;;5007973;28;20029;-71
2021/04/06 10:49:57;;;;;;;0.57;0.57;;;3.30;99.90;;;;;;5007185;28;20495;-71
2021/04/06 10:52:29;;;;;;;0.75;0.60;;;3.30;99.90;;;;;;4990919;28;20037;-72
2021/04/06 10:54:55;;;;;;;1.67;0.70;;;3.40;99.90;;;;;;5008610;28;20061;-70
2021/04/06 10:57:29;;;;;;;1.92;0.77;;;3.30;99.90;;;;;;5010506;28;20060;-70
2021/04/06 10:59:55;;;;;;;0.93;0.80;;;3.30;99.90;;;;;;5004641;28;20022;-70
2021/04/06 11:02:21;;;;;;;0.73;0.60;;;3.40;99.90;;;;;;5023541;28;20041;-70
2021/04/06 11:04:47;;;;;;;1.30;0.80;;;3.60;99.90;;;;;;5017464;28;20081;-72
2021/04/06 11:07:13;;;;;;;0.90;0.57;;;3.70;99.90;;;;;;5016795;28;20054;-72
2021/04/06 11:09:41;;;;;;;0.82;0.80;;;3.80;99.90;;;;;;5015238;28;20484;-71
2021/04/06 11:12:09;;;;;;;0.85;0.55;;;3.80;99.90;;;;;;5021602;28;20057;-71
2021/04/06 11:14:36;;;;;;;3.25;0.70;;;4.00;99.90;;;;;;5020985;28;20037;-72
2021/04/06 11:17:06;;;;;;;1.85;0.50;;;4.00;99.90;;;;;;5006962;28;20033;-70
2021/04/06 11:19:41;;;;;;;1.08;0.98;;;4.00;99.90;;;;;;5014272;28;20049;-73
2021/04/06 11:22:19;;;;;;;0.95;0.93;;;4.10;99.90;;;;;;5016676;28;20127;-71
2021/04/06 11:24:49;;;;;;;0.47;0.47;;;4.10;99.90;;;;;;5015669;28;20041;-71
2021/04/06 11:27:17;;;;;;;1.70;0.88;;;4.00;99.90;;;;;;5005206;28;20117;-71
2021/04/06 11:29:44;;;;;;;5.45;0.90;;;4.00;99.90;;;;;;5016734;28;20026;-69
2021/04/06 11:32:13;;;;;;;0.70;0.52;;;4.10;99.90;;;;;;4990941;28;20026;-70
2021/04/06 11:34:40;;;;;;;0.75;0.40;;;4.10;99.90;;;;;;5006506;28;20037;-70
2021/04/06 11:37:07;;;;;;;3.20;0.57;;;4.30;99.90;;;;;;5020026;28;20034;-69
2021/04/06 11:39:35;;;;;;;1.05;0.95;;;4.20;99.90;;;;;;5013103;28;20031;-71
2021/04/06 11:42:03;;;;;;;1.00;0.80;;;4.30;99.90;;;;;;5011809;28;20033;-70
2021/04/06 11:44:29;;;;;;;0.52;0.52;;;4.30;99.90;;;;;;5016572;28;20108;-69
2021/04/06 11:46:56;;;;;;;0.20;0.20;;;4.40;99.90;;;;;;5019666;28;20032;-69
2021/04/06 11:49:22;;;;;;;0.93;0.65;;;4.40;99.90;;;;;;5003146;28;20112;-70
2021/04/06 11:51:48;;;;;;;0.70;0.70;;;4.50;99.90;;;;;;5017477;28;20097;-71
2021/04/06 11:54:16;;;;;;;0.65;0.65;;;4.50;99.90;;;;;;5019808;28;20109;-69
2021/04/06 11:56:42;;;;;;;0.38;0.30;;;4.60;99.90;;;;;;5014222;28;20140;-69
2021/04/06 11:59:08;;;;;;;2.25;0.50;;;4.70;99.90;;;;;;5017728;28;20120;-70
2021/04/06 12:01:34;;;;;;;0.68;0.68;;;5.00;99.90;;;;;;5021308;28;20029;-72
2021/04/06 12:04:00;;;;;;;0.43;0.43;;;4.90;99.90;;;;;;5022835;28;20124;-66
2021/04/06 12:06:26;;;;;;;1.27;0.63;;;4.80;99.90;;;;;;5015501;28;20421;-71
2021/04/06 12:08:52;;;;;;;0.95;0.60;;;4.90;99.90;;;;;;5019188;28;20048;-73
2021/04/06 12:11:18;;;;;;;1.20;1.10;;;4.90;99.90;;;;;;5003334;28;20042;-72
2021/04/06 12:13:44;;;;;;;0.30;0.30;;;4.90;99.90;;;;;;5016229;28;20065;-73
2021/04/06 12:16:10;;;;;;;1.00;0.80;;;5.00;99.90;;;;;;5006295;28;20060;-71
2021/04/06 12:18:37;;;;;;;0.55;0.43;;;4.80;99.90;;;;;;5016955;28;20037;-72
2021/04/06 12:21:04;;;;;;;4.30;0.60;;;4.80;99.90;;;;;;5007584;28;20105;-70
2021/04/06 12:23:29;;;;;;;1.63;0.73;;;4.80;99.90;;;;;;5003838;28;20033;-72
2021/04/06 12:25:55;;;;;;;0.60;0.60;;;4.80;99.90;;;;;;5001965;28;20030;-76
2021/04/06 12:28:21;;;;;;;0.28;0.25;;;4.80;99.90;;;;;;5017336;28;20014;-72
2021/04/06 12:30:47;;;;;;;0.73;0.65;;;4.90;99.90;;;;;;5013352;28;20030;-74
2021/04/06 12:33:13;;;;;;;0.75;0.60;;;5.00;99.90;;;;;;5017907;28;20492;-72
2021/04/06 12:35:39;;;;;;;0.60;0.50;;;5.10;99.90;;;;;;5010110;28;20164;-72
2021/04/06 12:38:05;;;;;;;0.50;0.43;;;5.10;99.90;;;;;;5011358;28;20030;-72
2021/04/06 12:40:32;;;;;;;1.40;0.40;;;4.90;99.90;;;;;;5013378;28;20021;-74
2021/04/06 12:42:59;;;;;;;0.50;0.50;;;4.90;99.90;;;;;;5009764;28;20125;-73
2021/04/06 12:45:25;;;;;;;3.55;0.55;;;5.10;99.90;;;;;;5008428;28;20025;-74
2021/04/06 12:47:51;;;;;;;0.75;0.40;;;5.10;99.90;;;;;;5014096;28;20034;-73
2021/04/06 12:50:17;;;;;;;0.98;0.55;;;5.00;99.90;;;;;;5020156;28;20096;-75
2021/04/06 12:52:43;;;;;;;1.10;0.85;;;5.00;99.90;;;;;;5015523;28;20453;-74
2021/04/06 12:55:09;;;;;;;1.75;0.70;;;5.10;99.90;;;;;;5003514;28;20049;-74
2021/04/06 12:57:35;;;;;;;0.80;0.80;;;5.00;99.90;;;;;;5022760;28;20067;-74
2021/04/06 13:00:03;;;;;;;2.13;0.63;;;5.00;99.90;;;;;;5007313;28;20066;-76
2021/04/06 13:02:28;;;;;;;1.45;0.88;;;5.00;99.90;;;;;;5021772;28;20037;-73
2021/04/06 13:04:54;;;;;;;1.10;1.00;;;4.90;99.90;;;;;;5013704;28;20033;-74
2021/04/06 13:07:20;;;;;;;6.97;0.60;;;5.00;99.90;;;;;;5001090;28;20041;-73
2021/04/06 13:09:48;;;;;;;1.40;0.77;;;4.90;99.90;;;;;;5027942;28;20032;-72